createdAt,value
2023-10-26T00:02:31.547Z,15.43
2023-10-26T00:07:33.872Z,15.39
2023-10-26T00:12:36.033Z,15.37
2023-10-26T00:17:39.089Z,15.38
2023-10-26T00:22:41.378Z,15.40
2023-10-26T00:27:43.383Z,15.38
2023-10-26T00:32:46.096Z,15.41
2023-10-26T00:37:48.213Z,15.39
2023-10-26T00:42:50.416Z,15.39
2023-10-26T00:47:52.609Z,15.39
2023-10-26T00:52:56.131Z,15.42
2023-10-26T00:57:59.077Z,15.40
2023-10-26T01:03:01.349Z,15.40
2023-10-26T01:08:03.750Z,15.37
2023-10-26T01:13:05.906Z,15.34
2023-10-26T01:18:08.161Z,15.33
2023-10-26T01:23:10.984Z,15.31
2023-10-26T01:28:13.044Z,15.28
2023-10-26T01:33:15.093Z,15.29
2023-10-26T01:38:17.398Z,15.30
2023-10-26T01:43:20.265Z,15.29
2023-10-26T01:48:24.433Z,15.31
2023-10-26T01:53:27.567Z,15.31
2023-10-26T01:58:29.696Z,15.29
2023-10-26T02:03:31.843Z,15.29
2023-10-26T02:08:34.653Z,15.31
2023-10-26T02:13:36.926Z,15.32
2023-10-26T02:18:39.040Z,15.35
2023-10-26T02:23:42.621Z,15.34
2023-10-26T02:28:44.740Z,15.30
2023-10-26T02:33:46.773Z,15.29
2023-10-26T02:38:48.807Z,15.31
2023-10-26T02:43:50.909Z,15.26
2023-10-26T02:48:53.025Z,15.26
2023-10-26T02:53:55.102Z,15.28
2023-10-26T02:58:57.284Z,15.28
2023-10-26T03:03:59.476Z,15.34
2023-10-26T03:09:01.681Z,15.32
2023-10-26T03:14:05.348Z,15.33
2023-10-26T03:19:07.639Z,15.33
2023-10-26T03:24:10.327Z,15.31
2023-10-26T03:29:12.488Z,15.32
2023-10-26T03:34:14.611Z,15.27
2023-10-26T03:39:16.748Z,15.27
2023-10-26T03:44:18.966Z,15.28
2023-10-26T03:49:21.604Z,15.27
2023-10-26T03:54:27.865Z,15.25
2023-10-26T03:59:29.998Z,15.27
2023-10-26T04:04:32.284Z,15.24
2023-10-26T04:09:34.531Z,15.21
2023-10-26T04:14:36.805Z,15.21
2023-10-26T04:19:38.887Z,15.21
2023-10-26T04:24:40.923Z,15.21
2023-10-26T04:29:43.737Z,15.23
2023-10-26T04:34:46.130Z,15.25
2023-10-26T04:39:48.333Z,15.24
2023-10-26T04:44:50.720Z,15.25
2023-10-26T04:49:52.729Z,15.25
2023-10-26T04:54:54.750Z,15.23
2023-10-26T04:59:56.856Z,15.27
2023-10-26T05:04:58.887Z,15.24
2023-10-26T05:10:01.431Z,15.24
2023-10-26T05:15:05.236Z,15.26
2023-10-26T05:20:09.085Z,15.23
2023-10-26T05:25:12.780Z,15.23
2023-10-26T05:30:14.865Z,15.23
2023-10-26T05:35:17.155Z,15.20
2023-10-26T05:40:19.432Z,15.16
2023-10-26T05:45:21.594Z,15.15
2023-10-26T05:50:23.780Z,15.18
2023-10-26T05:55:26.063Z,15.18
2023-10-26T06:00:28.243Z,15.26
2023-10-26T06:05:30.374Z,15.31
2023-10-26T06:10:32.726Z,15.41
2023-10-26T06:15:38.065Z,15.24
2023-10-26T06:20:40.335Z,15.32
2023-10-26T06:25:42.439Z,15.35
2023-10-26T06:30:44.480Z,15.33
2023-10-26T06:35:46.970Z,15.37
2023-10-26T06:40:49.265Z,15.33
2023-10-26T06:45:54.462Z,15.36
2023-10-26T06:51:04.153Z,15.40
2023-10-26T06:56:13.213Z,15.74
2023-10-26T07:01:19.873Z,15.71
2023-10-26T07:06:27.024Z,15.76
2023-10-26T07:11:29.102Z,15.91
2023-10-26T07:16:31.445Z,16.06
2023-10-26T07:21:35.371Z,15.91
2023-10-26T07:26:37.508Z,15.79
2023-10-26T07:31:39.569Z,15.86
2023-10-26T07:36:41.742Z,15.85
2023-10-26T07:42:07.844Z,15.88
2023-10-26T07:47:09.883Z,15.94
2023-10-26T07:52:12.136Z,15.94
2023-10-26T07:57:14.295Z,16.03
2023-10-26T08:02:16.408Z,16.09
2023-10-26T08:07:18.724Z,16.09
2023-10-26T08:12:20.874Z,16.16
2023-10-26T08:17:23.370Z,16.22
2023-10-26T08:22:29.020Z,16.25
2023-10-26T08:27:31.320Z,16.26
2023-10-26T08:32:33.469Z,16.38
2023-10-26T08:37:35.830Z,16.39
2023-10-26T08:42:41.121Z,16.36
2023-10-26T08:47:43.766Z,16.31
2023-10-26T08:52:46.277Z,16.30
2023-10-26T08:57:53.541Z,16.26
2023-10-26T09:02:56.111Z,16.20
2023-10-26T09:07:58.394Z,16.30
2023-10-26T09:13:07.549Z,16.41
2023-10-26T09:18:10.779Z,16.52
2023-10-26T09:23:29.308Z,16.66
2023-10-26T09:28:48.892Z,16.79
2023-10-26T09:33:51.236Z,17.05
2023-10-26T09:38:53.573Z,17.25
2023-10-26T09:43:55.687Z,17.61
2023-10-26T09:48:58.773Z,17.78
2023-10-26T09:54:04.229Z,18.25
2023-10-26T09:59:07.276Z,18.00
2023-10-26T10:04:12.781Z,17.80
2023-10-26T10:09:15.060Z,17.62
2023-10-26T10:14:48.246Z,17.59
2023-10-26T10:20:19.085Z,17.73
2023-10-26T10:25:24.317Z,17.91
2023-10-26T10:30:31.664Z,18.16
2023-10-26T10:35:46.673Z,18.28
2023-10-26T10:41:00.505Z,18.34
2023-10-26T10:46:16.791Z,18.34
2023-10-26T10:51:18.908Z,18.45
2023-10-26T10:56:21.065Z,18.65
2023-10-26T11:01:25.085Z,18.76
2023-10-26T11:06:27.457Z,18.80
2023-10-26T11:11:29.656Z,18.74
2023-10-26T11:16:32.004Z,18.58
2023-10-26T11:21:34.413Z,18.35
2023-10-26T11:26:36.821Z,18.10
2023-10-26T11:31:40.780Z,17.92
2023-10-26T11:36:45.992Z,17.97
2023-10-26T11:41:55.810Z,18.09
2023-10-26T11:47:02.205Z,18.02
2023-10-26T11:52:04.810Z,18.04
2023-10-26T11:57:07.027Z,17.92
2023-10-26T12:02:09.195Z,17.73
2023-10-26T12:07:11.432Z,17.72
2023-10-26T12:12:14.200Z,17.85
2023-10-26T12:17:16.308Z,17.74
2023-10-26T12:22:18.664Z,17.98
2023-10-26T12:27:21.394Z,18.13
2023-10-26T12:32:25.075Z,18.25
2023-10-26T12:37:27.211Z,18.21
2023-10-26T12:42:29.203Z,18.16
2023-10-26T12:47:31.586Z,18.11
2023-10-26T12:52:33.936Z,18.20
2023-10-26T12:57:35.992Z,18.35
2023-10-26T13:02:38.298Z,18.50
2023-10-26T13:07:40.376Z,18.70
2023-10-26T13:12:42.845Z,18.63
2023-10-26T13:17:45.083Z,18.61
2023-10-26T13:22:47.282Z,18.57
2023-10-26T13:27:49.679Z,18.54
2023-10-26T13:32:51.887Z,18.43
2023-10-26T13:37:54.066Z,18.47
2023-10-26T13:42:56.150Z,18.47
2023-10-26T13:48:00.997Z,18.53
2023-10-26T13:53:03.389Z,18.55
2023-10-26T13:58:09.035Z,18.36
2023-10-26T14:03:11.085Z,18.24
2023-10-26T14:08:13.199Z,18.23
2023-10-26T14:13:15.352Z,18.33
2023-10-26T14:18:17.563Z,18.46
2023-10-26T14:23:21.035Z,18.49
2023-10-26T14:28:23.155Z,18.53
2023-10-26T14:33:25.473Z,18.42
2023-10-26T14:38:27.668Z,18.34
2023-10-26T14:43:29.850Z,18.30
2023-10-26T14:48:32.269Z,18.24
2023-10-26T14:53:37.535Z,18.16
2023-10-26T14:58:40.251Z,17.46
2023-10-26T15:03:43.602Z,16.34
2023-10-26T15:08:45.622Z,15.99
2023-10-26T15:13:47.536Z,15.87
2023-10-26T15:18:49.914Z,15.74
2023-10-26T15:23:52.827Z,15.73
2023-10-26T15:28:54.846Z,15.56
2023-10-26T15:33:58.713Z,15.36
2023-10-26T15:39:02.094Z,15.29
2023-10-26T15:44:04.324Z,15.20
2023-10-26T15:49:33.267Z,15.15
2023-10-26T15:54:29.906Z,15.04
2023-10-26T15:59:31.937Z,14.98
2023-10-26T16:04:37.731Z,14.94
2023-10-26T16:09:39.792Z,14.94
2023-10-26T16:14:42.026Z,14.92
2023-10-26T16:19:44.346Z,14.85
2023-10-26T16:24:46.593Z,14.83
2023-10-26T16:29:49.020Z,14.79
2023-10-26T16:34:51.047Z,14.75
2023-10-26T16:39:53.143Z,14.76
2023-10-26T16:44:55.136Z,14.79
2023-10-26T16:49:58.097Z,14.75
2023-10-26T16:55:00.284Z,14.67
2023-10-26T17:00:03.802Z,14.65
2023-10-26T17:05:06.456Z,14.64
2023-10-26T17:10:09.861Z,14.61
2023-10-26T17:15:12.263Z,14.58
2023-10-26T17:20:14.620Z,14.59
2023-10-26T17:25:18.161Z,14.57
2023-10-26T17:30:21.251Z,14.58
2023-10-26T17:35:23.334Z,14.52
2023-10-26T17:40:25.638Z,14.49
2023-10-26T17:45:27.732Z,14.44
2023-10-26T17:50:29.866Z,14.40
2023-10-26T17:55:32.237Z,14.45
2023-10-26T18:00:34.318Z,14.45
2023-10-26T18:05:36.616Z,14.42
2023-10-26T18:10:38.682Z,14.40
2023-10-26T18:15:41.658Z,14.38
2023-10-26T18:21:01.409Z,14.43
2023-10-26T18:26:10.985Z,14.44
2023-10-26T18:31:17.574Z,14.40
2023-10-26T18:36:22.179Z,14.39
2023-10-26T18:41:25.876Z,14.37
2023-10-26T18:46:28.008Z,14.26
2023-10-26T18:51:30.377Z,14.27
2023-10-26T18:56:32.544Z,14.28
2023-10-26T19:01:34.637Z,14.29
2023-10-26T19:06:37.727Z,14.21
2023-10-26T19:11:40.276Z,14.19
2023-10-26T19:16:43.136Z,14.14
2023-10-26T19:21:45.365Z,14.09
2023-10-26T19:26:47.568Z,14.10
2023-10-26T19:31:49.694Z,14.09
2023-10-26T19:36:52.068Z,13.99
2023-10-26T19:41:54.042Z,13.96
2023-10-26T19:46:56.186Z,13.79
2023-10-26T19:52:21.090Z,13.71
2023-10-26T19:57:36.713Z,13.59
2023-10-26T20:02:38.934Z,13.51
2023-10-26T20:07:44.063Z,13.51
2023-10-26T20:12:47.885Z,13.57
2023-10-26T20:17:50.017Z,13.43
2023-10-26T20:22:55.771Z,13.39
2023-10-26T20:27:58.121Z,13.40
2023-10-26T20:33:00.386Z,13.44
2023-10-26T20:38:02.796Z,13.30
2023-10-26T20:43:06.113Z,13.15
2023-10-26T20:48:08.425Z,13.07
2023-10-26T20:53:10.534Z,13.00
2023-10-26T20:58:13.671Z,13.01
2023-10-26T21:03:15.879Z,12.97
2023-10-26T21:08:18.273Z,12.86
2023-10-26T21:13:20.470Z,12.84
2023-10-26T21:18:22.933Z,12.81
2023-10-26T21:23:25.089Z,12.86
2023-10-26T21:28:27.334Z,12.82
2023-10-26T21:33:29.583Z,12.78
2023-10-26T21:38:31.834Z,12.83
2023-10-26T21:43:34.873Z,12.82
2023-10-26T21:48:37.134Z,12.83
2023-10-26T21:53:39.738Z,12.79
2023-10-26T21:58:43.667Z,12.77
2023-10-26T22:03:56.703Z,12.71
2023-10-26T22:09:08.592Z,12.62
2023-10-26T22:14:10.618Z,12.64
2023-10-26T22:19:12.852Z,12.50
2023-10-26T22:24:15.187Z,12.45
2023-10-26T22:29:29.301Z,12.32
2023-10-26T22:34:32.442Z,12.21
2023-10-26T22:39:34.618Z,12.13
2023-10-26T22:44:36.691Z,12.07
2023-10-26T22:49:38.949Z,12.03
2023-10-26T22:54:41.044Z,11.96
2023-10-26T22:59:46.759Z,11.98
2023-10-26T23:04:49.132Z,11.92
2023-10-26T23:09:51.544Z,11.90
2023-10-26T23:14:53.587Z,11.99
2023-10-26T23:19:55.648Z,12.03
2023-10-26T23:24:57.817Z,12.02
2023-10-26T23:30:02.988Z,11.98
2023-10-26T23:35:05.758Z,11.93
2023-10-26T23:40:08.594Z,11.91
2023-10-26T23:45:10.969Z,11.92
2023-10-26T23:50:13.029Z,11.86
2023-10-26T23:55:16.309Z,11.75
